Terminal Aerodrome Forecast
Issued by NWS

Home | Current Version | Previous Version | Text Only | Print | Product List | Glossary On
Versions: 1 2 3 4 5 6 7 8 9 10 11 12 13 14 15 16 17 18 19 20 21 22 23 24 25 26 27 28 29 30 31 32 33 34 35 36 37 38 39 40 41 42 43 44 45 46 47 48
043
FTAK31 PAFA 061158
TAFAOT
TAF
PAOT 061158Z 0612/0712 26006KT 2SM BR OVC002
     FM061500 05008KT 1SM BR OVC002
     FM062000 28006KT 3SM BR BKN008
     FM062200 27007KT P6SM SCT008=

USA.gov is the U.S. government's official web portal to all federal, state and local government web resources and services.